sensor_id;sensor_type;location;lat;lon;timestamp;P1;durP1;ratioP1;P2;durP2;ratioP2
29402;SDS011;16382;59.942;30.472;2023-12-28T00:01:19;11.85;;;5.75;;
29402;SDS011;16382;59.942;30.472;2023-12-28T00:04:22;13.05;;;6.18;;
29402;SDS011;16382;59.942;30.472;2023-12-28T00:11:09;9.88;;;5.00;;
29402;SDS011;16382;59.942;30.472;2023-12-28T00:14:08;10.25;;;4.72;;
29402;SDS011;16382;59.942;30.472;2023-12-28T00:16:52;11.75;;;5.65;;
29402;SDS011;16382;59.942;30.472;2023-12-28T00:19:46;7.40;;;4.47;;
29402;SDS011;16382;59.942;30.472;2023-12-28T00:23:21;9.13;;;5.07;;
29402;SDS011;16382;59.942;30.472;2023-12-28T00:25:52;8.63;;;4.35;;
29402;SDS011;16382;59.942;30.472;2023-12-28T00:28:19;10.65;;;5.25;;
29402;SDS011;16382;59.942;30.472;2023-12-28T00:30:49;9.75;;;5.18;;
29402;SDS011;16382;59.942;30.472;2023-12-28T00:33:17;10.25;;;5.53;;
29402;SDS011;16382;59.942;30.472;2023-12-28T00:35:45;8.98;;;4.80;;
29402;SDS011;16382;59.942;30.472;2023-12-28T00:38:12;11.32;;;5.80;;
29402;SDS011;16382;59.942;30.472;2023-12-28T00:40:41;10.88;;;6.03;;
29402;SDS011;16382;59.942;30.472;2023-12-28T00:43:11;12.52;;;5.38;;
29402;SDS011;16382;59.942;30.472;2023-12-28T00:45:42;9.85;;;5.20;;
29402;SDS011;16382;59.942;30.472;2023-12-28T00:48:13;8.70;;;4.88;;
29402;SDS011;16382;59.942;30.472;2023-12-28T00:50:52;9.15;;;5.28;;
29402;SDS011;16382;59.942;30.472;2023-12-28T00:53:51;11.43;;;5.80;;
29402;SDS011;16382;59.942;30.472;2023-12-28T01:04:29;10.73;;;6.28;;
29402;SDS011;16382;59.942;30.472;2023-12-28T01:06:56;14.00;;;5.82;;
29402;SDS011;16382;59.942;30.472;2023-12-28T01:09:30;9.05;;;5.53;;
29402;SDS011;16382;59.942;30.472;2023-12-28T01:11:59;10.48;;;6.60;;
29402;SDS011;16382;59.942;30.472;2023-12-28T01:14:31;11.80;;;6.60;;
29402;SDS011;16382;59.942;30.472;2023-12-28T01:17:00;12.52;;;6.85;;
29402;SDS011;16382;59.942;30.472;2023-12-28T01:19:40;9.05;;;5.78;;
29402;SDS011;16382;59.942;30.472;2023-12-28T01:22:40;16.20;;;7.18;;
29402;SDS011;16382;59.942;30.472;2023-12-28T01:25:14;12.07;;;6.93;;
29402;SDS011;16382;59.942;30.472;2023-12-28T01:27:41;17.92;;;7.93;;
29402;SDS011;16382;59.942;30.472;2023-12-28T01:30:11;15.02;;;7.10;;
29402;SDS011;16382;59.942;30.472;2023-12-28T01:32:39;14.10;;;7.65;;
29402;SDS011;16382;59.942;30.472;2023-12-28T01:35:06;13.63;;;7.35;;
29402;SDS011;16382;59.942;30.472;2023-12-28T01:37:36;13.40;;;6.88;;
29402;SDS011;16382;59.942;30.472;2023-12-28T01:40:06;13.90;;;8.07;;
29402;SDS011;16382;59.942;30.472;2023-12-28T01:42:35;12.85;;;6.93;;
29402;SDS011;16382;59.942;30.472;2023-12-28T01:45:04;16.10;;;8.05;;
29402;SDS011;16382;59.942;30.472;2023-12-28T01:47:46;13.40;;;7.72;;
29402;SDS011;16382;59.942;30.472;2023-12-28T01:50:15;12.13;;;6.97;;
29402;SDS011;16382;59.942;30.472;2023-12-28T01:52:46;12.32;;;7.60;;
29402;SDS011;16382;59.942;30.472;2023-12-28T01:55:49;10.32;;;6.13;;
29402;SDS011;16382;59.942;30.472;2023-12-28T01:58:25;12.52;;;6.80;;
29402;SDS011;16382;59.942;30.472;2023-12-28T02:01:37;12.30;;;6.22;;
29402;SDS011;16382;59.942;30.472;2023-12-28T02:08:01;10.13;;;6.28;;
29402;SDS011;16382;59.942;30.472;2023-12-28T02:10:38;9.75;;;6.22;;
29402;SDS011;16382;59.942;30.472;2023-12-28T02:13:06;10.10;;;6.95;;
29402;SDS011;16382;59.942;30.472;2023-12-28T02:15:40;11.68;;;6.32;;
29402;SDS011;16382;59.942;30.472;2023-12-28T02:18:12;12.57;;;6.78;;
29402;SDS011;16382;59.942;30.472;2023-12-28T02:21:09;14.20;;;7.32;;
29402;SDS011;16382;59.942;30.472;2023-12-28T02:23:45;9.30;;;6.35;;
29402;SDS011;16382;59.942;30.472;2023-12-28T02:26:16;15.00;;;7.18;;
29402;SDS011;16382;59.942;30.472;2023-12-28T02:28:48;12.95;;;7.15;;
29402;SDS011;16382;59.942;30.472;2023-12-28T02:32:35;16.75;;;7.47;;
29402;SDS011;16382;59.942;30.472;2023-12-28T02:36:14;15.25;;;7.13;;
29402;SDS011;16382;59.942;30.472;2023-12-28T02:39:33;15.43;;;7.78;;
29402;SDS011;16382;59.942;30.472;2023-12-28T02:43:02;14.68;;;7.55;;
29402;SDS011;16382;59.942;30.472;2023-12-28T02:45:32;13.20;;;7.70;;
29402;SDS011;16382;59.942;30.472;2023-12-28T02:48:00;17.40;;;7.88;;
29402;SDS011;16382;59.942;30.472;2023-12-28T02:50:27;16.63;;;9.20;;
29402;SDS011;16382;59.942;30.472;2023-12-28T02:52:55;15.73;;;8.93;;
29402;SDS011;16382;59.942;30.472;2023-12-28T02:55:23;15.90;;;8.63;;
29402;SDS011;16382;59.942;30.472;2023-12-28T02:57:53;17.92;;;9.85;;
29402;SDS011;16382;59.942;30.472;2023-12-28T03:00:26;19.33;;;9.27;;
29402;SDS011;16382;59.942;30.472;2023-12-28T03:02:55;17.75;;;9.30;;
29402;SDS011;16382;59.942;30.472;2023-12-28T03:05:22;18.00;;;7.97;;
29402;SDS011;16382;59.942;30.472;2023-12-28T03:07:49;16.83;;;7.80;;
29402;SDS011;16382;59.942;30.472;2023-12-28T03:10:21;12.18;;;7.00;;
29402;SDS011;16382;59.942;30.472;2023-12-28T03:12:52;11.80;;;6.28;;
29402;SDS011;16382;59.942;30.472;2023-12-28T03:59:48;17.33;;;8.35;;
29402;SDS011;16382;59.942;30.472;2023-12-28T04:02:43;17.08;;;8.80;;
29402;SDS011;16382;59.942;30.472;2023-12-28T04:09:18;16.77;;;8.80;;
29402;SDS011;16382;59.942;30.472;2023-12-28T04:12:08;16.73;;;8.82;;
29402;SDS011;16382;59.942;30.472;2023-12-28T04:14:58;17.63;;;9.00;;
29402;SDS011;16382;59.942;30.472;2023-12-28T04:19:41;22.13;;;10.23;;
29402;SDS011;16382;59.942;30.472;2023-12-28T04:29:43;26.63;;;13.00;;
29402;SDS011;16382;59.942;30.472;2023-12-28T04:32:38;23.92;;;11.23;;
29402;SDS011;16382;59.942;30.472;2023-12-28T04:36:49;28.75;;;13.75;;
29402;SDS011;16382;59.942;30.472;2023-12-28T04:39:33;24.27;;;12.65;;
29402;SDS011;16382;59.942;30.472;2023-12-28T04:46:46;32.95;;;14.95;;
29402;SDS011;16382;59.942;30.472;2023-12-28T04:49:22;31.48;;;14.95;;
29402;SDS011;16382;59.942;30.472;2023-12-28T04:52:41;28.45;;;14.35;;
29402;SDS011;16382;59.942;30.472;2023-12-28T04:55:56;29.88;;;15.02;;
29402;SDS011;16382;59.942;30.472;2023-12-28T04:59:57;29.77;;;12.95;;
29402;SDS011;16382;59.942;30.472;2023-12-28T05:09:43;26.55;;;11.90;;
29402;SDS011;16382;59.942;30.472;2023-12-28T05:12:50;25.65;;;13.60;;
29402;SDS011;16382;59.942;30.472;2023-12-28T05:15:30;23.98;;;12.55;;
29402;SDS011;16382;59.942;30.472;2023-12-28T05:19:05;19.65;;;11.77;;
29402;SDS011;16382;59.942;30.472;2023-12-28T05:21:35;20.13;;;11.48;;
29402;SDS011;16382;59.942;30.472;2023-12-28T05:24:03;18.52;;;10.35;;
29402;SDS011;16382;59.942;30.472;2023-12-28T05:26:39;16.92;;;9.35;;
29402;SDS011;16382;59.942;30.472;2023-12-28T05:29:10;17.40;;;9.85;;
29402;SDS011;16382;59.942;30.472;2023-12-28T05:31:39;17.40;;;9.18;;
29402;SDS011;16382;59.942;30.472;2023-12-28T05:34:07;11.82;;;7.97;;
29402;SDS011;16382;59.942;30.472;2023-12-28T05:36:37;12.15;;;7.88;;
29402;SDS011;16382;59.942;30.472;2023-12-28T05:39:06;12.50;;;7.82;;
29402;SDS011;16382;59.942;30.472;2023-12-28T05:41:34;13.65;;;8.48;;
29402;SDS011;16382;59.942;30.472;2023-12-28T05:44:33;10.35;;;7.57;;
29402;SDS011;16382;59.942;30.472;2023-12-28T05:46:56;11.80;;;7.75;;
29402;SDS011;16382;59.942;30.472;2023-12-28T05:49:26;13.75;;;8.15;;
29402;SDS011;16382;59.942;30.472;2023-12-28T05:52:07;10.75;;;7.45;;
29402;SDS011;16382;59.942;30.472;2023-12-28T05:54:45;9.20;;;6.40;;
29402;SDS011;16382;59.942;30.472;2023-12-28T05:57:13;13.52;;;7.13;;
29402;SDS011;16382;59.942;30.472;2023-12-28T05:59:42;12.68;;;7.70;;
29402;SDS011;16382;59.942;30.472;2023-12-28T06:02:14;16.10;;;7.20;;
29402;SDS011;16382;59.942;30.472;2023-12-28T06:05:09;13.82;;;7.47;;
29402;SDS011;16382;59.942;30.472;2023-12-28T06:07:38;12.05;;;6.72;;
29402;SDS011;16382;59.942;30.472;2023-12-28T06:10:10;13.40;;;8.35;;
29402;SDS011;16382;59.942;30.472;2023-12-28T06:12:40;15.55;;;8.98;;
29402;SDS011;16382;59.942;30.472;2023-12-28T06:15:12;12.75;;;7.47;;
29402;SDS011;16382;59.942;30.472;2023-12-28T06:18:02;14.32;;;7.78;;
29402;SDS011;16382;59.942;30.472;2023-12-28T06:20:32;11.80;;;7.50;;
29402;SDS011;16382;59.942;30.472;2023-12-28T06:23:27;12.32;;;7.43;;
29402;SDS011;16382;59.942;30.472;2023-12-28T06:26:12;17.10;;;9.38;;
29402;SDS011;16382;59.942;30.472;2023-12-28T06:32:13;16.02;;;9.15;;
29402;SDS011;16382;59.942;30.472;2023-12-28T06:34:46;14.80;;;9.15;;
29402;SDS011;16382;59.942;30.472;2023-12-28T06:37:14;14.88;;;8.85;;
29402;SDS011;16382;59.942;30.472;2023-12-28T06:39:45;14.20;;;8.80;;
29402;SDS011;16382;59.942;30.472;2023-12-28T06:42:14;14.90;;;7.85;;
29402;SDS011;16382;59.942;30.472;2023-12-28T06:44:46;16.10;;;8.45;;
29402;SDS011;16382;59.942;30.472;2023-12-28T06:47:32;22.48;;;11.65;;
29402;SDS011;16382;59.942;30.472;2023-12-28T06:50:01;19.73;;;10.35;;
29402;SDS011;16382;59.942;30.472;2023-12-28T06:52:37;20.75;;;10.30;;
29402;SDS011;16382;59.942;30.472;2023-12-28T06:55:08;24.58;;;11.30;;
29402;SDS011;16382;59.942;30.472;2023-12-28T06:57:38;29.05;;;11.18;;
29402;SDS011;16382;59.942;30.472;2023-12-28T07:00:11;31.88;;;13.10;;
29402;SDS011;16382;59.942;30.472;2023-12-28T07:02:58;43.53;;;13.27;;
29402;SDS011;16382;59.942;30.472;2023-12-28T07:05:36;41.72;;;13.27;;
29402;SDS011;16382;59.942;30.472;2023-12-28T07:08:11;38.22;;;14.75;;
29402;SDS011;16382;59.942;30.472;2023-12-28T07:10:41;32.08;;;12.30;;
29402;SDS011;16382;59.942;30.472;2023-12-28T07:13:11;37.03;;;13.13;;
29402;SDS011;16382;59.942;30.472;2023-12-28T07:15:39;25.85;;;9.43;;
29402;SDS011;16382;59.942;30.472;2023-12-28T07:18:15;22.95;;;9.95;;
29402;SDS011;16382;59.942;30.472;2023-12-28T07:20:43;17.45;;;8.13;;
29402;SDS011;16382;59.942;30.472;2023-12-28T07:23:14;19.83;;;8.90;;
29402;SDS011;16382;59.942;30.472;2023-12-28T07:25:41;13.93;;;8.05;;
29402;SDS011;16382;59.942;30.472;2023-12-28T07:28:09;11.32;;;6.72;;
29402;SDS011;16382;59.942;30.472;2023-12-28T07:30:36;15.75;;;7.38;;
29402;SDS011;16382;59.942;30.472;2023-12-28T07:33:10;13.23;;;6.55;;
29402;SDS011;16382;59.942;30.472;2023-12-28T07:35:39;13.30;;;6.97;;
29402;SDS011;16382;59.942;30.472;2023-12-28T07:38:09;12.63;;;6.72;;
29402;SDS011;16382;59.942;30.472;2023-12-28T07:40:38;10.27;;;6.93;;
29402;SDS011;16382;59.942;30.472;2023-12-28T07:43:05;14.02;;;7.13;;
29402;SDS011;16382;59.942;30.472;2023-12-28T07:45:33;13.98;;;6.75;;
29402;SDS011;16382;59.942;30.472;2023-12-28T07:48:04;12.23;;;7.13;;
29402;SDS011;16382;59.942;30.472;2023-12-28T07:50:40;14.02;;;8.05;;
29402;SDS011;16382;59.942;30.472;2023-12-28T07:53:07;14.63;;;7.65;;
29402;SDS011;16382;59.942;30.472;2023-12-28T07:55:38;13.55;;;6.60;;
29402;SDS011;16382;59.942;30.472;2023-12-28T07:58:05;13.90;;;7.45;;
29402;SDS011;16382;59.942;30.472;2023-12-28T08:00:33;12.48;;;7.55;;
29402;SDS011;16382;59.942;30.472;2023-12-28T08:03:00;11.80;;;6.57;;
29402;SDS011;16382;59.942;30.472;2023-12-28T08:05:27;13.70;;;7.68;;
29402;SDS011;16382;59.942;30.472;2023-12-28T08:07:56;13.63;;;7.60;;
29402;SDS011;16382;59.942;30.472;2023-12-28T08:10:24;10.68;;;6.43;;
29402;SDS011;16382;59.942;30.472;2023-12-28T08:12:51;13.80;;;7.45;;
29402;SDS011;16382;59.942;30.472;2023-12-28T08:15:19;13.90;;;7.45;;
29402;SDS011;16382;59.942;30.472;2023-12-28T08:17:47;14.60;;;7.90;;
29402;SDS011;16382;59.942;30.472;2023-12-28T08:20:19;14.15;;;8.27;;
29402;SDS011;16382;59.942;30.472;2023-12-28T08:25:16;13.98;;;7.57;;
29402;SDS011;16382;59.942;30.472;2023-12-28T08:27:44;12.98;;;6.88;;
29402;SDS011;16382;59.942;30.472;2023-12-28T08:30:12;13.32;;;8.00;;
29402;SDS011;16382;59.942;30.472;2023-12-28T08:32:40;12.90;;;7.38;;
29402;SDS011;16382;59.942;30.472;2023-12-28T08:35:08;14.32;;;8.50;;
29402;SDS011;16382;59.942;30.472;2023-12-28T08:37:35;12.23;;;7.40;;
29402;SDS011;16382;59.942;30.472;2023-12-28T08:40:03;19.45;;;8.93;;
29402;SDS011;16382;59.942;30.472;2023-12-28T08:42:36;14.15;;;7.53;;
29402;SDS011;16382;59.942;30.472;2023-12-28T08:45:05;11.02;;;6.82;;
29402;SDS011;16382;59.942;30.472;2023-12-28T08:47:33;12.43;;;7.97;;
29402;SDS011;16382;59.942;30.472;2023-12-28T08:50:01;17.23;;;8.02;;
29402;SDS011;16382;59.942;30.472;2023-12-28T08:52:32;12.13;;;6.95;;
29402;SDS011;16382;59.942;30.472;2023-12-28T08:54:59;20.80;;;12.65;;
29402;SDS011;16382;59.942;30.472;2023-12-28T08:57:29;11.30;;;6.57;;
29402;SDS011;16382;59.942;30.472;2023-12-28T09:00:00;17.67;;;7.65;;
29402;SDS011;16382;59.942;30.472;2023-12-28T09:02:30;12.57;;;6.63;;
29402;SDS011;16382;59.942;30.472;2023-12-28T09:04:57;16.25;;;7.47;;
29402;SDS011;16382;59.942;30.472;2023-12-28T09:07:26;14.30;;;7.13;;
29402;SDS011;16382;59.942;30.472;2023-12-28T09:09:54;14.32;;;7.95;;
29402;SDS011;16382;59.942;30.472;2023-12-28T09:12:21;13.32;;;6.72;;
29402;SDS011;16382;59.942;30.472;2023-12-28T09:14:49;9.80;;;5.65;;
29402;SDS011;16382;59.942;30.472;2023-12-28T09:17:19;11.88;;;5.35;;
29402;SDS011;16382;59.942;30.472;2023-12-28T09:19:55;12.93;;;5.65;;
29402;SDS011;16382;59.942;30.472;2023-12-28T09:22:29;13.25;;;6.25;;
29402;SDS011;16382;59.942;30.472;2023-12-28T09:25:18;8.40;;;5.90;;
29402;SDS011;16382;59.942;30.472;2023-12-28T09:27:46;13.25;;;5.95;;
29402;SDS011;16382;59.942;30.472;2023-12-28T09:30:13;10.82;;;5.28;;
29402;SDS011;16382;59.942;30.472;2023-12-28T09:33:31;11.82;;;5.47;;
29402;SDS011;16382;59.942;30.472;2023-12-28T09:40:53;9.32;;;6.03;;
29402;SDS011;16382;59.942;30.472;2023-12-28T09:48:00;10.90;;;6.22;;
29402;SDS011;16382;59.942;30.472;2023-12-28T09:51:27;10.55;;;5.03;;
29402;SDS011;16382;59.942;30.472;2023-12-28T09:54:15;8.00;;;5.15;;
29402;SDS011;16382;59.942;30.472;2023-12-28T10:09:16;16.38;;;8.77;;
29402;SDS011;16382;59.942;30.472;2023-12-28T10:12:22;26.13;;;11.43;;
29402;SDS011;16382;59.942;30.472;2023-12-28T10:15:56;30.23;;;10.68;;
29402;SDS011;16382;59.942;30.472;2023-12-28T10:24:58;29.85;;;13.73;;
29402;SDS011;16382;59.942;30.472;2023-12-28T10:48:01;73.50;;;27.40;;
29402;SDS011;16382;59.942;30.472;2023-12-28T10:50:35;108.95;;;35.15;;
29402;SDS011;16382;59.942;30.472;2023-12-28T10:53:10;83.18;;;33.05;;
29402;SDS011;16382;59.942;30.472;2023-12-28T10:55:50;152.57;;;54.22;;
29402;SDS011;16382;59.942;30.472;2023-12-28T10:58:47;134.20;;;48.25;;
29402;SDS011;16382;59.942;30.472;2023-12-28T11:01:17;96.53;;;38.28;;
29402;SDS011;16382;59.942;30.472;2023-12-28T11:03:56;78.90;;;32.08;;
29402;SDS011;16382;59.942;30.472;2023-12-28T11:06:30;94.63;;;36.13;;
29402;SDS011;16382;59.942;30.472;2023-12-28T11:09:02;116.65;;;39.78;;
29402;SDS011;16382;59.942;30.472;2023-12-28T11:11:32;107.32;;;39.42;;
29402;SDS011;16382;59.942;30.472;2023-12-28T11:14:00;105.43;;;37.72;;
29402;SDS011;16382;59.942;30.472;2023-12-28T11:16:28;101.07;;;36.95;;
29402;SDS011;16382;59.942;30.472;2023-12-28T11:18:58;52.80;;;19.52;;
29402;SDS011;16382;59.942;30.472;2023-12-28T11:21:26;45.78;;;18.52;;
29402;SDS011;16382;59.942;30.472;2023-12-28T11:23:57;44.58;;;17.42;;
29402;SDS011;16382;59.942;30.472;2023-12-28T11:26:25;48.58;;;20.73;;
29402;SDS011;16382;59.942;30.472;2023-12-28T11:28:59;47.20;;;19.83;;
29402;SDS011;16382;59.942;30.472;2023-12-28T11:31:27;42.42;;;19.98;;
29402;SDS011;16382;59.942;30.472;2023-12-28T11:34:00;45.35;;;20.45;;
29402;SDS011;16382;59.942;30.472;2023-12-28T11:36:32;55.10;;;24.77;;
29402;SDS011;16382;59.942;30.472;2023-12-28T11:39:01;33.20;;;15.88;;
29402;SDS011;16382;59.942;30.472;2023-12-28T11:41:30;38.25;;;16.58;;
29402;SDS011;16382;59.942;30.472;2023-12-28T11:44:01;24.83;;;12.98;;
29402;SDS011;16382;59.942;30.472;2023-12-28T11:46:30;28.50;;;14.77;;
29402;SDS011;16382;59.942;30.472;2023-12-28T11:51:53;31.55;;;17.35;;
29402;SDS011;16382;59.942;30.472;2023-12-28T11:54:23;27.10;;;14.18;;
29402;SDS011;16382;59.942;30.472;2023-12-28T11:56:52;22.60;;;13.38;;
29402;SDS011;16382;59.942;30.472;2023-12-28T11:59:19;26.85;;;14.05;;
29402;SDS011;16382;59.942;30.472;2023-12-28T12:01:49;25.88;;;13.02;;
29402;SDS011;16382;59.942;30.472;2023-12-28T12:04:19;31.33;;;15.65;;
29402;SDS011;16382;59.942;30.472;2023-12-28T12:06:49;28.00;;;15.40;;
29402;SDS011;16382;59.942;30.472;2023-12-28T12:09:17;30.88;;;15.10;;
29402;SDS011;16382;59.942;30.472;2023-12-28T12:11:48;27.95;;;14.80;;
29402;SDS011;16382;59.942;30.472;2023-12-28T12:14:15;30.55;;;14.77;;
29402;SDS011;16382;59.942;30.472;2023-12-28T12:16:43;33.33;;;16.60;;
29402;SDS011;16382;59.942;30.472;2023-12-28T12:19:10;34.22;;;18.52;;
29402;SDS011;16382;59.942;30.472;2023-12-28T12:21:38;40.80;;;19.40;;
29402;SDS011;16382;59.942;30.472;2023-12-28T12:24:08;35.03;;;17.02;;
29402;SDS011;16382;59.942;30.472;2023-12-28T12:26:36;38.13;;;18.05;;
29402;SDS011;16382;59.942;30.472;2023-12-28T12:29:04;44.97;;;18.45;;
29402;SDS011;16382;59.942;30.472;2023-12-28T12:31:32;42.08;;;20.00;;
29402;SDS011;16382;59.942;30.472;2023-12-28T12:34:00;51.80;;;20.58;;
29402;SDS011;16382;59.942;30.472;2023-12-28T12:36:28;50.83;;;21.30;;
29402;SDS011;16382;59.942;30.472;2023-12-28T12:38:56;44.90;;;20.77;;
29402;SDS011;16382;59.942;30.472;2023-12-28T12:41:25;55.88;;;21.55;;
29402;SDS011;16382;59.942;30.472;2023-12-28T12:43:53;59.65;;;24.55;;
29402;SDS011;16382;59.942;30.472;2023-12-28T12:46:22;63.08;;;25.70;;
29402;SDS011;16382;59.942;30.472;2023-12-28T12:48:56;74.93;;;29.38;;
29402;SDS011;16382;59.942;30.472;2023-12-28T12:51:24;46.85;;;18.38;;
29402;SDS011;16382;59.942;30.472;2023-12-28T12:53:55;52.95;;;22.42;;
29402;SDS011;16382;59.942;30.472;2023-12-28T12:56:25;75.68;;;29.35;;
29402;SDS011;16382;59.942;30.472;2023-12-28T12:58:53;57.33;;;22.88;;
29402;SDS011;16382;59.942;30.472;2023-12-28T13:01:21;54.13;;;21.30;;
29402;SDS011;16382;59.942;30.472;2023-12-28T13:03:49;64.22;;;27.27;;
29402;SDS011;16382;59.942;30.472;2023-12-28T13:06:17;56.88;;;22.33;;
29402;SDS011;16382;59.942;30.472;2023-12-28T13:08:48;53.95;;;22.17;;
29402;SDS011;16382;59.942;30.472;2023-12-28T13:11:15;53.30;;;23.50;;
29402;SDS011;16382;59.942;30.472;2023-12-28T13:13:44;29.42;;;11.77;;
29402;SDS011;16382;59.942;30.472;2023-12-28T13:16:12;25.75;;;11.43;;
29402;SDS011;16382;59.942;30.472;2023-12-28T13:18:40;23.83;;;10.27;;
29402;SDS011;16382;59.942;30.472;2023-12-28T13:21:07;17.17;;;9.02;;
29402;SDS011;16382;59.942;30.472;2023-12-28T13:23:35;17.20;;;8.23;;
29402;SDS011;16382;59.942;30.472;2023-12-28T13:26:03;16.10;;;8.45;;
29402;SDS011;16382;59.942;30.472;2023-12-28T13:31:08;25.23;;;11.52;;
29402;SDS011;16382;59.942;30.472;2023-12-28T13:33:35;47.13;;;18.25;;
29402;SDS011;16382;59.942;30.472;2023-12-28T13:36:02;41.20;;;15.90;;
29402;SDS011;16382;59.942;30.472;2023-12-28T13:38:30;42.47;;;16.83;;
29402;SDS011;16382;59.942;30.472;2023-12-28T13:40:56;48.80;;;17.00;;
29402;SDS011;16382;59.942;30.472;2023-12-28T13:43:23;39.55;;;17.67;;
29402;SDS011;16382;59.942;30.472;2023-12-28T13:45:51;51.67;;;16.50;;
29402;SDS011;16382;59.942;30.472;2023-12-28T13:48:18;28.67;;;10.73;;
29402;SDS011;16382;59.942;30.472;2023-12-28T13:50:45;40.33;;;15.70;;
29402;SDS011;16382;59.942;30.472;2023-12-28T13:53:12;52.90;;;21.25;;
29402;SDS011;16382;59.942;30.472;2023-12-28T13:55:40;49.97;;;20.90;;
29402;SDS011;16382;59.942;30.472;2023-12-28T14:04:51;26.90;;;10.95;;
29402;SDS011;16382;59.942;30.472;2023-12-28T14:07:19;44.03;;;15.07;;
29402;SDS011;16382;59.942;30.472;2023-12-28T14:09:47;25.30;;;9.73;;
29402;SDS011;16382;59.942;30.472;2023-12-28T14:12:14;47.47;;;19.30;;
29402;SDS011;16382;59.942;30.472;2023-12-28T14:14:42;53.30;;;19.48;;
29402;SDS011;16382;59.942;30.472;2023-12-28T14:17:09;42.35;;;17.70;;
29402;SDS011;16382;59.942;30.472;2023-12-28T14:19:37;53.22;;;18.63;;
29402;SDS011;16382;59.942;30.472;2023-12-28T14:22:07;51.70;;;18.17;;
29402;SDS011;16382;59.942;30.472;2023-12-28T14:24:35;53.88;;;18.67;;
29402;SDS011;16382;59.942;30.472;2023-12-28T14:27:03;43.17;;;17.13;;
29402;SDS011;16382;59.942;30.472;2023-12-28T14:29:32;39.88;;;14.35;;
29402;SDS011;16382;59.942;30.472;2023-12-28T14:32:00;41.67;;;14.77;;
29402;SDS011;16382;59.942;30.472;2023-12-28T14:34:28;31.00;;;13.15;;
29402;SDS011;16382;59.942;30.472;2023-12-28T14:36:57;46.03;;;17.30;;
29402;SDS011;16382;59.942;30.472;2023-12-28T14:39:26;32.58;;;15.02;;
29402;SDS011;16382;59.942;30.472;2023-12-28T14:41:53;47.80;;;15.23;;
29402;SDS011;16382;59.942;30.472;2023-12-28T14:44:22;41.75;;;15.13;;
29402;SDS011;16382;59.942;30.472;2023-12-28T14:46:50;41.45;;;14.25;;
29402;SDS011;16382;59.942;30.472;2023-12-28T14:49:18;26.15;;;10.85;;
29402;SDS011;16382;59.942;30.472;2023-12-28T14:51:45;24.23;;;10.52;;
29402;SDS011;16382;59.942;30.472;2023-12-28T14:54:14;32.17;;;12.38;;
29402;SDS011;16382;59.942;30.472;2023-12-28T14:56:43;30.40;;;12.57;;
29402;SDS011;16382;59.942;30.472;2023-12-28T14:59:11;31.23;;;13.57;;
29402;SDS011;16382;59.942;30.472;2023-12-28T15:01:38;30.55;;;11.75;;
29402;SDS011;16382;59.942;30.472;2023-12-28T15:04:06;23.10;;;10.68;;
29402;SDS011;16382;59.942;30.472;2023-12-28T15:06:35;18.77;;;7.75;;
29402;SDS011;16382;59.942;30.472;2023-12-28T15:09:02;19.85;;;8.85;;
29402;SDS011;16382;59.942;30.472;2023-12-28T15:11:30;20.02;;;6.57;;
29402;SDS011;16382;59.942;30.472;2023-12-28T15:14:00;17.75;;;6.82;;
29402;SDS011;16382;59.942;30.472;2023-12-28T15:16:28;13.63;;;6.22;;
29402;SDS011;16382;59.942;30.472;2023-12-28T15:18:57;18.00;;;6.03;;
29402;SDS011;16382;59.942;30.472;2023-12-28T15:21:25;22.25;;;7.50;;
29402;SDS011;16382;59.942;30.472;2023-12-28T15:23:56;37.17;;;7.97;;
29402;SDS011;16382;59.942;30.472;2023-12-28T15:26:26;28.35;;;9.05;;
29402;SDS011;16382;59.942;30.472;2023-12-28T15:28:54;33.70;;;12.80;;
29402;SDS011;16382;59.942;30.472;2023-12-28T15:31:23;41.80;;;17.77;;
29402;SDS011;16382;59.942;30.472;2023-12-28T15:33:50;52.53;;;21.58;;
29402;SDS011;16382;59.942;30.472;2023-12-28T15:36:18;51.08;;;21.45;;
29402;SDS011;16382;59.942;30.472;2023-12-28T15:38:46;62.72;;;26.73;;
29402;SDS011;16382;59.942;30.472;2023-12-28T15:41:13;49.88;;;22.33;;
29402;SDS011;16382;59.942;30.472;2023-12-28T15:43:41;81.35;;;32.20;;
29402;SDS011;16382;59.942;30.472;2023-12-28T15:46:08;63.75;;;25.67;;
29402;SDS011;16382;59.942;30.472;2023-12-28T15:48:37;33.25;;;11.48;;
29402;SDS011;16382;59.942;30.472;2023-12-28T15:51:05;58.58;;;20.80;;
29402;SDS011;16382;59.942;30.472;2023-12-28T15:53:32;46.95;;;19.27;;
29402;SDS011;16382;59.942;30.472;2023-12-28T15:56:00;42.47;;;20.02;;
29402;SDS011;16382;59.942;30.472;2023-12-28T15:58:27;35.90;;;16.77;;
29402;SDS011;16382;59.942;30.472;2023-12-28T16:00:55;27.00;;;11.38;;
29402;SDS011;16382;59.942;30.472;2023-12-28T16:03:22;16.17;;;6.78;;
29402;SDS011;16382;59.942;30.472;2023-12-28T16:05:51;16.35;;;5.57;;
29402;SDS011;16382;59.942;30.472;2023-12-28T16:08:19;16.38;;;7.35;;
29402;SDS011;16382;59.942;30.472;2023-12-28T16:10:47;16.17;;;7.53;;
29402;SDS011;16382;59.942;30.472;2023-12-28T16:13:15;18.17;;;7.72;;
29402;SDS011;16382;59.942;30.472;2023-12-28T16:15:42;17.95;;;5.90;;
29402;SDS011;16382;59.942;30.472;2023-12-28T16:20:47;9.57;;;3.97;;
29402;SDS011;16382;59.942;30.472;2023-12-28T16:31:09;12.73;;;4.65;;
29402;SDS011;16382;59.942;30.472;2023-12-28T16:38:07;11.80;;;5.03;;
29402;SDS011;16382;59.942;30.472;2023-12-28T16:41:27;15.18;;;5.68;;
29402;SDS011;16382;59.942;30.472;2023-12-28T16:45:04;11.98;;;5.55;;
29402;SDS011;16382;59.942;30.472;2023-12-28T16:56:12;10.93;;;4.20;;
29402;SDS011;16382;59.942;30.472;2023-12-28T16:58:40;13.20;;;4.45;;
29402;SDS011;16382;59.942;30.472;2023-12-28T17:01:07;9.98;;;4.20;;
29402;SDS011;16382;59.942;30.472;2023-12-28T17:03:35;9.38;;;4.22;;
29402;SDS011;16382;59.942;30.472;2023-12-28T17:06:06;7.50;;;3.00;;
29402;SDS011;16382;59.942;30.472;2023-12-28T17:08:37;9.32;;;3.65;;
29402;SDS011;16382;59.942;30.472;2023-12-28T17:11:07;7.78;;;3.17;;
29402;SDS011;16382;59.942;30.472;2023-12-28T17:13:37;7.88;;;2.72;;
29402;SDS011;16382;59.942;30.472;2023-12-28T17:16:08;11.55;;;4.72;;
29402;SDS011;16382;59.942;30.472;2023-12-28T17:18:37;7.97;;;4.47;;
29402;SDS011;16382;59.942;30.472;2023-12-28T17:21:08;8.27;;;4.28;;
29402;SDS011;16382;59.942;30.472;2023-12-28T17:23:44;12.93;;;3.72;;
29402;SDS011;16382;59.942;30.472;2023-12-28T17:26:18;4.97;;;3.53;;
29402;SDS011;16382;59.942;30.472;2023-12-28T17:28:58;8.18;;;3.08;;
29402;SDS011;16382;59.942;30.472;2023-12-28T17:31:36;4.75;;;2.95;;
29402;SDS011;16382;59.942;30.472;2023-12-28T17:34:12;9.90;;;3.38;;
29402;SDS011;16382;59.942;30.472;2023-12-28T17:36:47;9.02;;;3.65;;
29402;SDS011;16382;59.942;30.472;2023-12-28T17:39:19;7.65;;;3.22;;
29402;SDS011;16382;59.942;30.472;2023-12-28T17:41:53;11.00;;;3.70;;
29402;SDS011;16382;59.942;30.472;2023-12-28T17:44:24;6.28;;;3.20;;
29402;SDS011;16382;59.942;30.472;2023-12-28T17:47:01;8.23;;;3.15;;
29402;SDS011;16382;59.942;30.472;2023-12-28T17:49:33;9.05;;;3.20;;
29402;SDS011;16382;59.942;30.472;2023-12-28T17:52:03;7.13;;;3.65;;
29402;SDS011;16382;59.942;30.472;2023-12-28T17:54:36;6.53;;;3.40;;
29402;SDS011;16382;59.942;30.472;2023-12-28T17:57:06;10.02;;;3.97;;